sensor_id;sensor_type;location;lat;lon;timestamp;P1;durP1;ratioP1;P2;durP2;ratioP2
1839;SDS011;920;48.944;9.148;2022-09-24T00:01:10;10.40;;;9.37;;
1839;SDS011;920;48.944;9.148;2022-09-24T00:03:38;9.67;;;8.77;;
1839;SDS011;920;48.944;9.148;2022-09-24T00:06:06;10.63;;;8.67;;
1839;SDS011;920;48.944;9.148;2022-09-24T00:08:34;10.93;;;9.43;;
1839;SDS011;920;48.944;9.148;2022-09-24T00:11:01;9.10;;;8.20;;
1839;SDS011;920;48.944;9.148;2022-09-24T00:13:29;8.70;;;7.80;;
1839;SDS011;920;48.944;9.148;2022-09-24T00:16:00;9.30;;;8.40;;
1839;SDS011;920;48.944;9.148;2022-09-24T00:18:29;8.70;;;7.87;;
1839;SDS011;920;48.944;9.148;2022-09-24T00:20:55;8.40;;;7.53;;
1839;SDS011;920;48.944;9.148;2022-09-24T00:23:22;10.70;;;7.73;;
1839;SDS011;920;48.944;9.148;2022-09-24T00:25:49;8.70;;;7.80;;
1839;SDS011;920;48.944;9.148;2022-09-24T00:28:33;7.93;;;7.03;;
1839;SDS011;920;48.944;9.148;2022-09-24T00:31:02;8.23;;;7.30;;
1839;SDS011;920;48.944;9.148;2022-09-24T00:33:32;11.10;;;7.80;;
1839;SDS011;920;48.944;9.148;2022-09-24T00:36:00;9.30;;;7.80;;
1839;SDS011;920;48.944;9.148;2022-09-24T00:38:28;9.73;;;8.80;;
1839;SDS011;920;48.944;9.148;2022-09-24T00:40:55;9.50;;;8.60;;
1839;SDS011;920;48.944;9.148;2022-09-24T00:43:23;12.83;;;9.40;;
1839;SDS011;920;48.944;9.148;2022-09-24T00:45:51;8.73;;;7.83;;
1839;SDS011;920;48.944;9.148;2022-09-24T00:48:19;8.20;;;7.40;;
1839;SDS011;920;48.944;9.148;2022-09-24T00:50:47;9.70;;;8.43;;
1839;SDS011;920;48.944;9.148;2022-09-24T00:53:15;7.33;;;6.63;;
1839;SDS011;920;48.944;9.148;2022-09-24T00:55:43;8.40;;;7.60;;
1839;SDS011;920;48.944;9.148;2022-09-24T00:58:11;10.57;;;9.47;;
1839;SDS011;920;48.944;9.148;2022-09-24T01:00:39;9.93;;;8.93;;
1839;SDS011;920;48.944;9.148;2022-09-24T01:03:09;7.63;;;6.93;;
1839;SDS011;920;48.944;9.148;2022-09-24T01:05:37;8.83;;;8.00;;
1839;SDS011;920;48.944;9.148;2022-09-24T01:08:08;9.77;;;7.57;;
1839;SDS011;920;48.944;9.148;2022-09-24T01:10:40;7.87;;;7.07;;
1839;SDS011;920;48.944;9.148;2022-09-24T01:13:15;9.83;;;8.73;;
1839;SDS011;920;48.944;9.148;2022-09-24T01:15:52;8.27;;;7.43;;
1839;SDS011;920;48.944;9.148;2022-09-24T01:18:23;7.90;;;7.10;;
1839;SDS011;920;48.944;9.148;2022-09-24T01:21:14;9.20;;;8.30;;
1839;SDS011;920;48.944;9.148;2022-09-24T01:26:56;6.57;;;5.73;;
1839;SDS011;920;48.944;9.148;2022-09-24T01:29:30;6.90;;;6.27;;
1839;SDS011;920;48.944;9.148;2022-09-24T01:32:06;9.60;;;8.30;;
1839;SDS011;920;48.944;9.148;2022-09-24T01:34:37;7.70;;;6.80;;
1839;SDS011;920;48.944;9.148;2022-09-24T01:37:05;8.00;;;6.20;;
1839;SDS011;920;48.944;9.148;2022-09-24T01:39:32;8.87;;;7.97;;
1839;SDS011;920;48.944;9.148;2022-09-24T01:42:00;9.30;;;7.90;;
1839;SDS011;920;48.944;9.148;2022-09-24T01:44:27;8.07;;;6.80;;
1839;SDS011;920;48.944;9.148;2022-09-24T01:46:55;8.60;;;7.50;;
1839;SDS011;920;48.944;9.148;2022-09-24T01:49:23;8.83;;;8.00;;
1839;SDS011;920;48.944;9.148;2022-09-24T01:51:50;10.03;;;9.03;;
1839;SDS011;920;48.944;9.148;2022-09-24T01:54:21;8.43;;;7.63;;
1839;SDS011;920;48.944;9.148;2022-09-24T01:56:50;6.77;;;5.90;;
1839;SDS011;920;48.944;9.148;2022-09-24T01:59:21;7.00;;;5.80;;
1839;SDS011;920;48.944;9.148;2022-09-24T02:01:52;7.00;;;6.30;;
1839;SDS011;920;48.944;9.148;2022-09-24T02:04:23;8.03;;;7.23;;
1839;SDS011;920;48.944;9.148;2022-09-24T02:06:52;8.80;;;7.60;;
1839;SDS011;920;48.944;9.148;2022-09-24T02:09:30;8.17;;;6.80;;
1839;SDS011;920;48.944;9.148;2022-09-24T02:11:59;7.33;;;6.63;;
1839;SDS011;920;48.944;9.148;2022-09-24T02:14:39;7.93;;;7.13;;
1839;SDS011;920;48.944;9.148;2022-09-24T02:17:10;9.43;;;7.40;;
1839;SDS011;920;48.944;9.148;2022-09-24T02:19:38;7.90;;;7.13;;
1839;SDS011;920;48.944;9.148;2022-09-24T02:22:07;8.00;;;7.20;;
1839;SDS011;920;48.944;9.148;2022-09-24T02:24:36;6.67;;;6.07;;
1839;SDS011;920;48.944;9.148;2022-09-24T02:27:07;7.77;;;7.07;;
1839;SDS011;920;48.944;9.148;2022-09-24T02:29:34;8.00;;;7.20;;
1839;SDS011;920;48.944;9.148;2022-09-24T02:32:01;8.80;;;7.90;;
1839;SDS011;920;48.944;9.148;2022-09-24T02:34:31;8.80;;;8.00;;
1839;SDS011;920;48.944;9.148;2022-09-24T02:37:03;9.23;;;8.37;;
1839;SDS011;920;48.944;9.148;2022-09-24T02:39:30;8.00;;;6.63;;
1839;SDS011;920;48.944;9.148;2022-09-24T02:41:58;8.63;;;7.73;;
1839;SDS011;920;48.944;9.148;2022-09-24T02:44:25;9.03;;;7.57;;
1839;SDS011;920;48.944;9.148;2022-09-24T02:46:52;8.10;;;7.30;;
1839;SDS011;920;48.944;9.148;2022-09-24T02:49:19;9.73;;;8.73;;
1839;SDS011;920;48.944;9.148;2022-09-24T02:51:47;6.97;;;6.33;;
1839;SDS011;920;48.944;9.148;2022-09-24T02:54:13;8.33;;;7.47;;
1839;SDS011;920;48.944;9.148;2022-09-24T02:56:40;12.20;;;8.27;;
1839;SDS011;920;48.944;9.148;2022-09-24T02:59:07;8.50;;;7.70;;
1839;SDS011;920;48.944;9.148;2022-09-24T03:01:34;8.90;;;8.10;;
1839;SDS011;920;48.944;9.148;2022-09-24T03:04:02;8.80;;;7.90;;
1839;SDS011;920;48.944;9.148;2022-09-24T03:06:29;11.43;;;8.77;;
1839;SDS011;920;48.944;9.148;2022-09-24T03:08:57;9.50;;;8.50;;
1839;SDS011;920;48.944;9.148;2022-09-24T03:11:25;9.60;;;8.70;;
1839;SDS011;920;48.944;9.148;2022-09-24T03:13:51;9.40;;;8.50;;
1839;SDS011;920;48.944;9.148;2022-09-24T03:16:18;9.37;;;8.47;;
1839;SDS011;920;48.944;9.148;2022-09-24T03:18:45;8.47;;;7.60;;
1839;SDS011;920;48.944;9.148;2022-09-24T03:21:13;8.70;;;7.90;;
1839;SDS011;920;48.944;9.148;2022-09-24T03:23:41;9.00;;;7.87;;
1839;SDS011;920;48.944;9.148;2022-09-24T03:26:09;9.17;;;8.23;;
1839;SDS011;920;48.944;9.148;2022-09-24T03:28:36;9.13;;;8.23;;
1839;SDS011;920;48.944;9.148;2022-09-24T03:31:03;7.50;;;6.80;;
1839;SDS011;920;48.944;9.148;2022-09-24T03:33:29;7.47;;;6.73;;
1839;SDS011;920;48.944;9.148;2022-09-24T03:35:58;8.60;;;6.83;;
1839;SDS011;920;48.944;9.148;2022-09-24T03:38:25;7.57;;;6.77;;
1839;SDS011;920;48.944;9.148;2022-09-24T03:40:53;11.43;;;7.50;;
1839;SDS011;920;48.944;9.148;2022-09-24T03:43:21;8.07;;;7.23;;
1839;SDS011;920;48.944;9.148;2022-09-24T03:45:48;8.90;;;6.93;;
1839;SDS011;920;48.944;9.148;2022-09-24T03:48:15;7.40;;;6.70;;
1839;SDS011;920;48.944;9.148;2022-09-24T03:50:42;7.57;;;6.77;;
1839;SDS011;920;48.944;9.148;2022-09-24T03:53:10;8.20;;;7.50;;
1839;SDS011;920;48.944;9.148;2022-09-24T03:55:40;8.67;;;7.87;;
1839;SDS011;920;48.944;9.148;2022-09-24T03:58:08;8.10;;;7.30;;
1839;SDS011;920;48.944;9.148;2022-09-24T04:00:36;8.83;;;7.77;;
1839;SDS011;920;48.944;9.148;2022-09-24T04:03:03;7.80;;;7.10;;
1839;SDS011;920;48.944;9.148;2022-09-24T04:05:30;7.70;;;7.00;;
1839;SDS011;920;48.944;9.148;2022-09-24T04:07:56;8.83;;;7.40;;
1839;SDS011;920;48.944;9.148;2022-09-24T04:10:23;8.40;;;7.57;;
1839;SDS011;920;48.944;9.148;2022-09-24T04:12:50;7.63;;;6.93;;
1839;SDS011;920;48.944;9.148;2022-09-24T04:15:17;7.47;;;6.80;;
1839;SDS011;920;48.944;9.148;2022-09-24T04:17:49;6.50;;;5.90;;
1839;SDS011;920;48.944;9.148;2022-09-24T04:20:16;6.70;;;5.57;;
1839;SDS011;920;48.944;9.148;2022-09-24T04:22:46;8.43;;;7.63;;
1839;SDS011;920;48.944;9.148;2022-09-24T04:25:14;7.67;;;6.87;;
1839;SDS011;920;48.944;9.148;2022-09-24T04:27:40;7.67;;;6.73;;
1839;SDS011;920;48.944;9.148;2022-09-24T04:30:08;7.10;;;6.40;;
1839;SDS011;920;48.944;9.148;2022-09-24T04:32:36;8.00;;;7.20;;
1839;SDS011;920;48.944;9.148;2022-09-24T04:35:04;7.47;;;6.77;;
1839;SDS011;920;48.944;9.148;2022-09-24T04:37:31;8.83;;;7.93;;
1839;SDS011;920;48.944;9.148;2022-09-24T04:39:58;7.97;;;7.27;;
1839;SDS011;920;48.944;9.148;2022-09-24T04:42:24;7.47;;;6.70;;
1839;SDS011;920;48.944;9.148;2022-09-24T04:44:51;6.83;;;6.20;;
1839;SDS011;920;48.944;9.148;2022-09-24T04:47:18;7.60;;;6.90;;
1839;SDS011;920;48.944;9.148;2022-09-24T04:49:44;7.87;;;7.17;;
1839;SDS011;920;48.944;9.148;2022-09-24T04:52:12;8.73;;;7.93;;
1839;SDS011;920;48.944;9.148;2022-09-24T04:54:40;9.60;;;8.60;;
1839;SDS011;920;48.944;9.148;2022-09-24T04:57:09;8.60;;;7.80;;
1839;SDS011;920;48.944;9.148;2022-09-24T04:59:35;8.60;;;7.80;;
1839;SDS011;920;48.944;9.148;2022-09-24T05:02:02;8.43;;;7.57;;
1839;SDS011;920;48.944;9.148;2022-09-24T05:04:31;7.43;;;6.73;;
1839;SDS011;920;48.944;9.148;2022-09-24T05:06:57;9.23;;;6.77;;
1839;SDS011;920;48.944;9.148;2022-09-24T05:09:25;7.80;;;7.10;;
1839;SDS011;920;48.944;9.148;2022-09-24T05:11:52;8.20;;;7.40;;
1839;SDS011;920;48.944;9.148;2022-09-24T05:14:18;7.27;;;6.57;;
1839;SDS011;920;48.944;9.148;2022-09-24T05:16:45;7.70;;;6.77;;
1839;SDS011;920;48.944;9.148;2022-09-24T05:19:12;8.80;;;7.03;;
1839;SDS011;920;48.944;9.148;2022-09-24T05:21:38;8.53;;;7.63;;
1839;SDS011;920;48.944;9.148;2022-09-24T05:24:05;8.00;;;7.17;;
1839;SDS011;920;48.944;9.148;2022-09-24T05:26:33;8.10;;;7.30;;
1839;SDS011;920;48.944;9.148;2022-09-24T05:29:17;6.80;;;6.20;;
1839;SDS011;920;48.944;9.148;2022-09-24T05:31:44;8.10;;;7.07;;
1839;SDS011;920;48.944;9.148;2022-09-24T05:34:10;9.53;;;7.20;;
1839;SDS011;920;48.944;9.148;2022-09-24T05:36:38;9.47;;;6.90;;
1839;SDS011;920;48.944;9.148;2022-09-24T05:39:07;7.10;;;6.50;;
1839;SDS011;920;48.944;9.148;2022-09-24T05:41:35;7.27;;;6.57;;
1839;SDS011;920;48.944;9.148;2022-09-24T05:44:02;7.50;;;6.80;;
1839;SDS011;920;48.944;9.148;2022-09-24T05:46:29;7.13;;;6.43;;
1839;SDS011;920;48.944;9.148;2022-09-24T05:48:55;8.17;;;7.37;;
1839;SDS011;920;48.944;9.148;2022-09-24T05:51:22;7.50;;;6.80;;
1839;SDS011;920;48.944;9.148;2022-09-24T05:53:49;6.60;;;6.00;;
1839;SDS011;920;48.944;9.148;2022-09-24T05:56:15;6.20;;;5.60;;
1839;SDS011;920;48.944;9.148;2022-09-24T05:58:46;8.93;;;6.07;;
1839;SDS011;920;48.944;9.148;2022-09-24T06:01:13;7.53;;;6.27;;
1839;SDS011;920;48.944;9.148;2022-09-24T06:03:40;7.13;;;6.43;;
1839;SDS011;920;48.944;9.148;2022-09-24T06:06:06;6.43;;;5.93;;
1839;SDS011;920;48.944;9.148;2022-09-24T06:08:33;7.80;;;6.07;;
1839;SDS011;920;48.944;9.148;2022-09-24T06:11:00;7.43;;;6.73;;
1839;SDS011;920;48.944;9.148;2022-09-24T06:13:27;6.90;;;6.17;;
1839;SDS011;920;48.944;9.148;2022-09-24T06:16:00;7.37;;;6.67;;
1839;SDS011;920;48.944;9.148;2022-09-24T06:18:26;6.20;;;5.60;;
1839;SDS011;920;48.944;9.148;2022-09-24T06:20:53;7.70;;;7.00;;
1839;SDS011;920;48.944;9.148;2022-09-24T06:23:20;7.63;;;6.90;;
1839;SDS011;920;48.944;9.148;2022-09-24T06:25:48;6.80;;;6.20;;
1839;SDS011;920;48.944;9.148;2022-09-24T06:28:15;7.10;;;6.40;;
1839;SDS011;920;48.944;9.148;2022-09-24T06:30:41;6.07;;;5.43;;
1839;SDS011;920;48.944;9.148;2022-09-24T06:33:10;9.47;;;6.83;;
1839;SDS011;920;48.944;9.148;2022-09-24T06:35:37;8.67;;;7.70;;
1839;SDS011;920;48.944;9.148;2022-09-24T06:38:05;8.33;;;7.47;;
1839;SDS011;920;48.944;9.148;2022-09-24T06:43:08;9.13;;;8.33;;
1839;SDS011;920;48.944;9.148;2022-09-24T06:45:35;9.23;;;8.30;;
1839;SDS011;920;48.944;9.148;2022-09-24T06:48:03;7.33;;;6.57;;
1839;SDS011;920;48.944;9.148;2022-09-24T06:50:32;9.17;;;8.33;;
1839;SDS011;920;48.944;9.148;2022-09-24T06:53:02;8.57;;;7.67;;
1839;SDS011;920;48.944;9.148;2022-09-24T06:55:30;7.80;;;7.10;;
1839;SDS011;920;48.944;9.148;2022-09-24T06:58:01;10.97;;;6.40;;
1839;SDS011;920;48.944;9.148;2022-09-24T07:00:28;7.67;;;7.00;;
1839;SDS011;920;48.944;9.148;2022-09-24T07:02:55;10.97;;;6.77;;
1839;SDS011;920;48.944;9.148;2022-09-24T07:05:21;10.30;;;8.13;;
1839;SDS011;920;48.944;9.148;2022-09-24T07:07:49;8.27;;;7.40;;
1839;SDS011;920;48.944;9.148;2022-09-24T07:10:16;9.90;;;8.87;;
1839;SDS011;920;48.944;9.148;2022-09-24T07:12:43;9.63;;;8.73;;
1839;SDS011;920;48.944;9.148;2022-09-24T07:15:09;10.33;;;8.77;;
1839;SDS011;920;48.944;9.148;2022-09-24T07:17:36;8.33;;;7.53;;
1839;SDS011;920;48.944;9.148;2022-09-24T07:20:03;9.63;;;8.73;;
1839;SDS011;920;48.944;9.148;2022-09-24T07:22:30;11.07;;;8.47;;
1839;SDS011;920;48.944;9.148;2022-09-24T07:24:58;9.67;;;8.00;;
1839;SDS011;920;48.944;9.148;2022-09-24T07:27:25;9.83;;;8.60;;
1839;SDS011;920;48.944;9.148;2022-09-24T07:29:52;7.80;;;7.10;;
1839;SDS011;920;48.944;9.148;2022-09-24T07:32:19;7.67;;;6.97;;
1839;SDS011;920;48.944;9.148;2022-09-24T07:34:46;11.17;;;8.37;;
1839;SDS011;920;48.944;9.148;2022-09-24T07:37:12;9.90;;;8.67;;
1839;SDS011;920;48.944;9.148;2022-09-24T07:39:39;10.70;;;9.60;;
1839;SDS011;920;48.944;9.148;2022-09-24T07:42:07;10.77;;;9.27;;
1839;SDS011;920;48.944;9.148;2022-09-24T07:44:33;9.07;;;8.27;;
1839;SDS011;920;48.944;9.148;2022-09-24T07:47:00;8.90;;;8.10;;
1839;SDS011;920;48.944;9.148;2022-09-24T07:49:27;9.27;;;8.47;;
1839;SDS011;920;48.944;9.148;2022-09-24T07:51:56;7.07;;;6.37;;
1839;SDS011;920;48.944;9.148;2022-09-24T07:54:22;9.03;;;8.13;;
1839;SDS011;920;48.944;9.148;2022-09-24T07:56:50;9.23;;;8.33;;
1839;SDS011;920;48.944;9.148;2022-09-24T07:59:18;8.70;;;7.80;;
1839;SDS011;920;48.944;9.148;2022-09-24T08:01:45;9.57;;;8.63;;
1839;SDS011;920;48.944;9.148;2022-09-24T08:04:12;8.57;;;7.70;;
1839;SDS011;920;48.944;9.148;2022-09-24T08:06:38;7.63;;;6.93;;
1839;SDS011;920;48.944;9.148;2022-09-24T08:09:05;9.30;;;8.40;;
1839;SDS011;920;48.944;9.148;2022-09-24T08:11:32;8.40;;;7.60;;
1839;SDS011;920;48.944;9.148;2022-09-24T08:13:59;9.87;;;8.87;;
1839;SDS011;920;48.944;9.148;2022-09-24T08:16:27;9.63;;;8.73;;
1839;SDS011;920;48.944;9.148;2022-09-24T08:18:53;10.10;;;9.20;;
1839;SDS011;920;48.944;9.148;2022-09-24T08:21:20;10.63;;;9.63;;
1839;SDS011;920;48.944;9.148;2022-09-24T08:23:47;10.50;;;9.50;;
1839;SDS011;920;48.944;9.148;2022-09-24T08:26:13;10.80;;;9.70;;
1839;SDS011;920;48.944;9.148;2022-09-24T08:28:40;8.67;;;7.87;;
1839;SDS011;920;48.944;9.148;2022-09-24T08:31:07;9.70;;;8.80;;
1839;SDS011;920;48.944;9.148;2022-09-24T08:33:38;8.93;;;8.10;;
1839;SDS011;920;48.944;9.148;2022-09-24T08:36:05;7.60;;;6.90;;
1839;SDS011;920;48.944;9.148;2022-09-24T08:38:33;9.93;;;9.03;;
1839;SDS011;920;48.944;9.148;2022-09-24T08:41:03;8.97;;;7.63;;
1839;SDS011;920;48.944;9.148;2022-09-24T08:43:36;9.73;;;8.37;;
1839;SDS011;920;48.944;9.148;2022-09-24T08:46:10;9.60;;;8.60;;
1839;SDS011;920;48.944;9.148;2022-09-24T08:48:58;11.00;;;9.90;;
1839;SDS011;920;48.944;9.148;2022-09-24T08:51:27;11.30;;;10.20;;
1839;SDS011;920;48.944;9.148;2022-09-24T08:54:01;10.90;;;9.90;;
1839;SDS011;920;48.944;9.148;2022-09-24T08:56:32;11.27;;;10.13;;
1839;SDS011;920;48.944;9.148;2022-09-24T08:59:01;10.63;;;9.70;;
1839;SDS011;920;48.944;9.148;2022-09-24T09:01:32;12.87;;;11.60;;
1839;SDS011;920;48.944;9.148;2022-09-24T09:04:17;11.37;;;10.17;;
1839;SDS011;920;48.944;9.148;2022-09-24T09:06:51;12.27;;;11.17;;
1839;SDS011;920;48.944;9.148;2022-09-24T09:09:27;9.77;;;8.77;;
1839;SDS011;920;48.944;9.148;2022-09-24T09:12:04;10.80;;;9.73;;
1839;SDS011;920;48.944;9.148;2022-09-24T09:14:37;11.70;;;10.50;;
1839;SDS011;920;48.944;9.148;2022-09-24T09:17:08;10.80;;;9.73;;
1839;SDS011;920;48.944;9.148;2022-09-24T09:19:42;11.43;;;10.33;;
1839;SDS011;920;48.944;9.148;2022-09-24T09:22:12;10.03;;;8.97;;
1839;SDS011;920;48.944;9.148;2022-09-24T09:24:40;9.90;;;9.00;;
1839;SDS011;920;48.944;9.148;2022-09-24T09:27:10;11.13;;;10.13;;
1839;SDS011;920;48.944;9.148;2022-09-24T09:29:39;10.97;;;9.53;;
1839;SDS011;920;48.944;9.148;2022-09-24T09:32:07;8.93;;;8.13;;
1839;SDS011;920;48.944;9.148;2022-09-24T09:34:41;10.63;;;9.73;;
1839;SDS011;920;48.944;9.148;2022-09-24T09:37:19;10.50;;;8.87;;
1839;SDS011;920;48.944;9.148;2022-09-24T09:39:52;9.40;;;8.50;;
1839;SDS011;920;48.944;9.148;2022-09-24T09:42:25;10.23;;;9.33;;
1839;SDS011;920;48.944;9.148;2022-09-24T09:44:53;9.67;;;8.77;;
1839;SDS011;920;48.944;9.148;2022-09-24T09:47:25;9.37;;;8.37;;
1839;SDS011;920;48.944;9.148;2022-09-24T09:50:03;7.90;;;7.10;;
1839;SDS011;920;48.944;9.148;2022-09-24T09:52:35;9.20;;;8.40;;
1839;SDS011;920;48.944;9.148;2022-09-24T09:55:04;9.50;;;8.50;;
1839;SDS011;920;48.944;9.148;2022-09-24T09:57:31;9.20;;;8.37;;
1839;SDS011;920;48.944;9.148;2022-09-24T09:59:59;11.23;;;9.80;;
1839;SDS011;920;48.944;9.148;2022-09-24T10:02:27;9.17;;;8.37;;
1839;SDS011;920;48.944;9.148;2022-09-24T10:04:57;11.17;;;10.17;;
1839;SDS011;920;48.944;9.148;2022-09-24T10:07:26;9.20;;;8.30;;
1839;SDS011;920;48.944;9.148;2022-09-24T10:10:00;10.30;;;9.40;;
1839;SDS011;920;48.944;9.148;2022-09-24T10:12:28;8.40;;;7.70;;
1839;SDS011;920;48.944;9.148;2022-09-24T10:14:59;10.97;;;9.87;;
1839;SDS011;920;48.944;9.148;2022-09-24T10:17:28;9.90;;;8.90;;
1839;SDS011;920;48.944;9.148;2022-09-24T10:19:58;9.27;;;8.37;;
1839;SDS011;920;48.944;9.148;2022-09-24T10:22:28;11.47;;;10.40;;
1839;SDS011;920;48.944;9.148;2022-09-24T10:24:56;9.67;;;8.70;;
1839;SDS011;920;48.944;9.148;2022-09-24T10:27:27;9.07;;;8.17;;
1839;SDS011;920;48.944;9.148;2022-09-24T10:29:56;11.27;;;10.17;;
1839;SDS011;920;48.944;9.148;2022-09-24T10:32:40;10.00;;;9.00;;
1839;SDS011;920;48.944;9.148;2022-09-24T10:35:18;9.30;;;8.40;;
1839;SDS011;920;48.944;9.148;2022-09-24T10:37:51;10.20;;;9.10;;
1839;SDS011;920;48.944;9.148;2022-09-24T10:40:19;9.50;;;8.63;;
1839;SDS011;920;48.944;9.148;2022-09-24T10:42:56;9.93;;;9.03;;
1839;SDS011;920;48.944;9.148;2022-09-24T10:45:30;10.00;;;9.10;;
1839;SDS011;920;48.944;9.148;2022-09-24T10:48:05;9.70;;;7.90;;
1839;SDS011;920;48.944;9.148;2022-09-24T10:50:36;11.27;;;10.07;;
1839;SDS011;920;48.944;9.148;2022-09-24T10:53:12;9.80;;;8.80;;
1839;SDS011;920;48.944;9.148;2022-09-24T10:55:41;10.50;;;8.27;;
1839;SDS011;920;48.944;9.148;2022-09-24T10:58:25;9.97;;;8.47;;
1839;SDS011;920;48.944;9.148;2022-09-24T11:01:02;10.40;;;9.40;;
1839;SDS011;920;48.944;9.148;2022-09-24T11:03:38;10.77;;;9.77;;
1839;SDS011;920;48.944;9.148;2022-09-24T11:06:13;10.03;;;9.00;;
1839;SDS011;920;48.944;9.148;2022-09-24T11:08:50;9.90;;;8.90;;
1839;SDS011;920;48.944;9.148;2022-09-24T11:11:25;10.90;;;8.20;;
1839;SDS011;920;48.944;9.148;2022-09-24T11:14:02;11.13;;;9.27;;
1839;SDS011;920;48.944;9.148;2022-09-24T11:16:45;9.20;;;8.40;;
1839;SDS011;920;48.944;9.148;2022-09-24T11:19:40;9.13;;;8.23;;
1839;SDS011;920;48.944;9.148;2022-09-24T11:22:18;8.90;;;8.10;;
1839;SDS011;920;48.944;9.148;2022-09-24T11:30:31;9.13;;;8.23;;
1839;SDS011;920;48.944;9.148;2022-09-24T11:33:09;11.43;;;8.30;;
1839;SDS011;920;48.944;9.148;2022-09-24T11:36:04;8.37;;;7.57;;
1839;SDS011;920;48.944;9.148;2022-09-24T11:38:42;8.90;;;8.10;;
1839;SDS011;920;48.944;9.148;2022-09-24T11:41:25;9.00;;;8.13;;
1839;SDS011;920;48.944;9.148;2022-09-24T11:44:10;6.60;;;5.93;;
1839;SDS011;920;48.944;9.148;2022-09-24T11:46:49;9.20;;;8.40;;
1839;SDS011;920;48.944;9.148;2022-09-24T11:52:13;7.17;;;6.57;;
1839;SDS011;920;48.944;9.148;2022-09-24T11:54:44;10.27;;;9.37;;
1839;SDS011;920;48.944;9.148;2022-09-24T11:57:15;9.70;;;8.90;;
1839;SDS011;920;48.944;9.148;2022-09-24T11:59:47;7.50;;;6.73;;
1839;SDS011;920;48.944;9.148;2022-09-24T12:02:19;8.70;;;7.40;;
1839;SDS011;920;48.944;9.148;2022-09-24T12:04:54;7.70;;;7.00;;
1839;SDS011;920;48.944;9.148;2022-09-24T12:07:26;9.13;;;8.23;;
1839;SDS011;920;48.944;9.148;2022-09-24T12:09:57;7.87;;;7.07;;
1839;SDS011;920;48.944;9.148;2022-09-24T12:12:27;7.23;;;6.53;;
1839;SDS011;920;48.944;9.148;2022-09-24T12:14:57;8.77;;;7.93;;
1839;SDS011;920;48.944;9.148;2022-09-24T12:17:29;7.93;;;7.23;;
1839;SDS011;920;48.944;9.148;2022-09-24T12:20:00;9.90;;;8.50;;
1839;SDS011;920;48.944;9.148;2022-09-24T12:22:30;7.83;;;7.00;;
1839;SDS011;920;48.944;9.148;2022-09-24T12:24:59;8.97;;;8.17;;
1839;SDS011;920;48.944;9.148;2022-09-24T12:27:28;9.17;;;8.27;;
1839;SDS011;920;48.944;9.148;2022-09-24T12:30:00;6.90;;;6.20;;
1839;SDS011;920;48.944;9.148;2022-09-24T12:32:48;7.50;;;6.80;;
1839;SDS011;920;48.944;9.148;2022-09-24T12:38:13;9.50;;;8.50;;
1839;SDS011;920;48.944;9.148;2022-09-24T12:41:06;9.43;;;8.33;;
1839;SDS011;920;48.944;9.148;2022-09-24T12:43:51;8.23;;;7.43;;
1839;SDS011;920;48.944;9.148;2022-09-24T12:46:23;11.50;;;10.40;;
1839;SDS011;920;48.944;9.148;2022-09-24T12:48:51;8.40;;;7.60;;
1839;SDS011;920;48.944;9.148;2022-09-24T12:51:18;9.60;;;8.77;;
1839;SDS011;920;48.944;9.148;2022-09-24T12:53:55;9.97;;;9.00;;
1839;SDS011;920;48.944;9.148;2022-09-24T12:56:23;8.57;;;7.73;;
1839;SDS011;920;48.944;9.148;2022-09-24T12:58:53;10.23;;;9.33;;
1839;SDS011;920;48.944;9.148;2022-09-24T13:01:26;11.00;;;9.90;;
1839;SDS011;920;48.944;9.148;2022-09-24T13:04:03;11.90;;;10.80;;
1839;SDS011;920;48.944;9.148;2022-09-24T13:06:32;9.57;;;8.60;;
1839;SDS011;920;48.944;9.148;2022-09-24T13:09:00;10.63;;;9.70;;
1839;SDS011;920;48.944;9.148;2022-09-24T13:11:29;8.17;;;7.47;;
1839;SDS011;920;48.944;9.148;2022-09-24T13:14:07;8.30;;;7.50;;
1839;SDS011;920;48.944;9.148;2022-09-24T13:16:44;10.70;;;8.07;;
1839;SDS011;920;48.944;9.148;2022-09-24T13:19:22;9.27;;;8.47;;
1839;SDS011;920;48.944;9.148;2022-09-24T13:21:53;9.67;;;8.77;;
1839;SDS011;920;48.944;9.148;2022-09-24T13:24:27;8.33;;;7.60;;
1839;SDS011;920;48.944;9.148;2022-09-24T13:27:06;12.60;;;11.47;;
1839;SDS011;920;48.944;9.148;2022-09-24T13:29:37;14.00;;;10.53;;
1839;SDS011;920;48.944;9.148;2022-09-24T13:32:07;13.80;;;12.20;;
1839;SDS011;920;48.944;9.148;2022-09-24T13:34:42;17.30;;;15.60;;
1839;SDS011;920;48.944;9.148;2022-09-24T13:37:10;13.83;;;12.63;;
1839;SDS011;920;48.944;9.148;2022-09-24T13:39:41;12.50;;;11.30;;
1839;SDS011;920;48.944;9.148;2022-09-24T13:42:13;10.20;;;9.30;;
1839;SDS011;920;48.944;9.148;2022-09-24T13:44:46;10.47;;;9.47;;
1839;SDS011;920;48.944;9.148;2022-09-24T13:47:15;8.40;;;7.67;;
1839;SDS011;920;48.944;9.148;2022-09-24T13:49:47;9.60;;;8.70;;
1839;SDS011;920;48.944;9.148;2022-09-24T13:52:27;8.60;;;7.80;;
1839;SDS011;920;48.944;9.148;2022-09-24T13:54:55;9.60;;;8.70;;
1839;SDS011;920;48.944;9.148;2022-09-24T13:57:25;8.97;;;8.10;;
1839;SDS011;920;48.944;9.148;2022-09-24T14:00:11;9.93;;;8.93;;
1839;SDS011;920;48.944;9.148;2022-09-24T14:02:41;8.77;;;7.83;;
1839;SDS011;920;48.944;9.148;2022-09-24T14:05:13;11.37;;;10.27;;
1839;SDS011;920;48.944;9.148;2022-09-24T14:07:41;8.67;;;7.87;;
1839;SDS011;920;48.944;9.148;2022-09-24T14:10:11;10.53;;;9.53;;
1839;SDS011;920;48.944;9.148;2022-09-24T14:12:39;7.60;;;6.90;;
1839;SDS011;920;48.944;9.148;2022-09-24T14:15:11;9.80;;;8.10;;
1839;SDS011;920;48.944;9.148;2022-09-24T14:17:40;8.90;;;8.00;;
1839;SDS011;920;48.944;9.148;2022-09-24T14:20:08;8.73;;;7.87;;
1839;SDS011;920;48.944;9.148;2022-09-24T14:22:38;9.57;;;8.67;;
1839;SDS011;920;48.944;9.148;2022-09-24T14:25:08;10.53;;;8.40;;
1839;SDS011;920;48.944;9.148;2022-09-24T14:27:38;10.23;;;8.87;;
1839;SDS011;920;48.944;9.148;2022-09-24T14:30:16;8.60;;;7.80;;
1839;SDS011;920;48.944;9.148;2022-09-24T14:32:44;10.17;;;9.17;;
1839;SDS011;920;48.944;9.148;2022-09-24T14:35:16;10.17;;;9.07;;
1839;SDS011;920;48.944;9.148;2022-09-24T14:37:45;10.00;;;9.00;;
1839;SDS011;920;48.944;9.148;2022-09-24T14:40:13;8.57;;;7.60;;
1839;SDS011;920;48.944;9.148;2022-09-24T14:42:41;9.23;;;8.40;;
1839;SDS011;920;48.944;9.148;2022-09-24T14:45:09;9.53;;;8.63;;
1839;SDS011;920;48.944;9.148;2022-09-24T14:47:44;9.60;;;8.70;;
1839;SDS011;920;48.944;9.148;2022-09-24T14:50:25;8.30;;;7.50;;
1839;SDS011;920;48.944;9.148;2022-09-24T14:52:59;10.30;;;9.30;;
1839;SDS011;920;48.944;9.148;2022-09-24T14:55:34;8.23;;;7.20;;
1839;SDS011;920;48.944;9.148;2022-09-24T14:58:01;8.20;;;7.40;;
1839;SDS011;920;48.944;9.148;2022-09-24T15:00:31;8.70;;;7.90;;
1839;SDS011;920;48.944;9.148;2022-09-24T15:03:02;10.90;;;9.90;;
1839;SDS011;920;48.944;9.148;2022-09-24T15:05:30;8.80;;;7.90;;
1839;SDS011;920;48.944;9.148;2022-09-24T15:08:18;9.00;;;8.10;;
1839;SDS011;920;48.944;9.148;2022-09-24T15:10:52;8.53;;;7.70;;
1839;SDS011;920;48.944;9.148;2022-09-24T15:13:21;8.13;;;7.33;;
1839;SDS011;920;48.944;9.148;2022-09-24T15:15:59;8.73;;;8.03;;
1839;SDS011;920;48.944;9.148;2022-09-24T15:18:26;8.40;;;7.70;;
1839;SDS011;920;48.944;9.148;2022-09-24T15:20:53;8.20;;;7.40;;
1839;SDS011;920;48.944;9.148;2022-09-24T15:23:21;7.93;;;7.23;;
1839;SDS011;920;48.944;9.148;2022-09-24T15:25:48;7.47;;;6.77;;
1839;SDS011;920;48.944;9.148;2022-09-24T15:28:14;8.17;;;7.33;;
1839;SDS011;920;48.944;9.148;2022-09-24T15:30:41;6.30;;;5.70;;
1839;SDS011;920;48.944;9.148;2022-09-24T15:33:10;7.30;;;6.10;;
1839;SDS011;920;48.944;9.148;2022-09-24T15:35:38;5.10;;;4.60;;
1839;SDS011;920;48.944;9.148;2022-09-24T15:38:07;5.43;;;4.93;;
1839;SDS011;920;48.944;9.148;2022-09-24T15:40:39;5.10;;;4.60;;
1839;SDS011;920;48.944;9.148;2022-09-24T15:43:09;5.17;;;4.67;;
1839;SDS011;920;48.944;9.148;2022-09-24T15:45:41;5.67;;;5.07;;
1839;SDS011;920;48.944;9.148;2022-09-24T15:48:08;6.37;;;5.37;;
1839;SDS011;920;48.944;9.148;2022-09-24T15:50:36;8.60;;;6.20;;
1839;SDS011;920;48.944;9.148;2022-09-24T15:53:03;5.40;;;4.90;;
1839;SDS011;920;48.944;9.148;2022-09-24T15:55:31;5.20;;;4.70;;
1839;SDS011;920;48.944;9.148;2022-09-24T15:57:59;4.90;;;4.50;;
1839;SDS011;920;48.944;9.148;2022-09-24T16:00:27;5.27;;;4.40;;
1839;SDS011;920;48.944;9.148;2022-09-24T16:02:54;4.93;;;4.43;;